Weather at Hummel Field

Public forecast

Using degrees Fahrenheit for public forecast. Weather courtesy of forecast.io.

Closest aviation weather report (METAR) to Hummel Field

Closest report is Middle Peninsula Regional Airport, 15.9 nm (29.4 km) WSW. Retrieved 2021/01/27 06:35 UTC (20 minutes ago):

KFYJ 270635Z AUTO 26005KT 10SM OVC003 04/04 A2994 RMK AO1 T00430039

Closest aviation forecast (TAF) to Hummel Field

Forecast is more than 6 hours old.

Closest forecast is Newport News Williamsburg International Airport, 28.3 nm (52.5 km) S. Retrieved 2021-01-27 00:30 UTC (6 hours ago):

TAF KPHF 252328Z 2600/2624 36003KT 2SM RA BR BKN007 OVC020 TEMPO 2600/2603 1SM RA BR OVC005 FM260600 08006KT 1 1/2SM RA OVC004 FM261500 09005KT P6SM OVC005 FM262000 27006KT P6SM BKN010